sensor_id;sensor_type;location;lat;lon;timestamp;temperature;humidity
21115;DHT22;10715;48.546;9.896;2023-06-19T00:01:58;18.20;99.90
21115;DHT22;10715;48.546;9.896;2023-06-19T00:04:24;18.10;99.90
21115;DHT22;10715;48.546;9.896;2023-06-19T00:06:52;18.10;99.90
21115;DHT22;10715;48.546;9.896;2023-06-19T00:09:18;18.10;99.90
21115;DHT22;10715;48.546;9.896;2023-06-19T00:11:44;18.00;99.90
21115;DHT22;10715;48.546;9.896;2023-06-19T00:14:10;18.00;99.90
21115;DHT22;10715;48.546;9.896;2023-06-19T00:16:36;18.00;99.90
21115;DHT22;10715;48.546;9.896;2023-06-19T00:19:01;17.90;99.90
21115;DHT22;10715;48.546;9.896;2023-06-19T00:21:29;17.90;99.90
21115;DHT22;10715;48.546;9.896;2023-06-19T00:23:55;17.80;99.90
21115;DHT22;10715;48.546;9.896;2023-06-19T00:26:21;17.80;99.90
21115;DHT22;10715;48.546;9.896;2023-06-19T00:28:51;17.80;99.90
21115;DHT22;10715;48.546;9.896;2023-06-19T00:31:17;17.80;99.90
21115;DHT22;10715;48.546;9.896;2023-06-19T00:33:44;17.70;99.90
21115;DHT22;10715;48.546;9.896;2023-06-19T00:36:14;17.70;99.90
21115;DHT22;10715;48.546;9.896;2023-06-19T00:38:40;17.70;99.90
21115;DHT22;10715;48.546;9.896;2023-06-19T00:41:07;17.70;99.90
21115;DHT22;10715;48.546;9.896;2023-06-19T00:43:33;17.70;99.90
21115;DHT22;10715;48.546;9.896;2023-06-19T00:45:59;17.60;99.90
21115;DHT22;10715;48.546;9.896;2023-06-19T00:48:27;17.60;99.90
21115;DHT22;10715;48.546;9.896;2023-06-19T00:50:54;17.60;99.90
21115;DHT22;10715;48.546;9.896;2023-06-19T00:53:20;17.50;99.90
21115;DHT22;10715;48.546;9.896;2023-06-19T00:55:47;17.50;99.90
21115;DHT22;10715;48.546;9.896;2023-06-19T00:58:14;17.50;99.90
21115;DHT22;10715;48.546;9.896;2023-06-19T01:00:40;17.50;99.90
21115;DHT22;10715;48.546;9.896;2023-06-19T01:03:06;17.50;99.90
21115;DHT22;10715;48.546;9.896;2023-06-19T01:05:32;17.50;99.90
21115;DHT22;10715;48.546;9.896;2023-06-19T01:10:40;17.40;99.90
21115;DHT22;10715;48.546;9.896;2023-06-19T01:15:53;17.40;99.90
21115;DHT22;10715;48.546;9.896;2023-06-19T01:18:20;17.40;99.90
21115;DHT22;10715;48.546;9.896;2023-06-19T01:20:48;17.40;99.90
21115;DHT22;10715;48.546;9.896;2023-06-19T01:23:14;17.30;99.90
21115;DHT22;10715;48.546;9.896;2023-06-19T01:25:40;17.30;99.90
21115;DHT22;10715;48.546;9.896;2023-06-19T01:28:09;17.20;99.90
21115;DHT22;10715;48.546;9.896;2023-06-19T01:30:37;17.20;99.90
21115;DHT22;10715;48.546;9.896;2023-06-19T01:35:38;17.10;99.90
21115;DHT22;10715;48.546;9.896;2023-06-19T01:38:06;17.10;99.90
21115;DHT22;10715;48.546;9.896;2023-06-19T01:40:33;17.10;99.90
21115;DHT22;10715;48.546;9.896;2023-06-19T01:43:00;17.10;99.90
21115;DHT22;10715;48.546;9.896;2023-06-19T01:45:30;17.00;99.90
21115;DHT22;10715;48.546;9.896;2023-06-19T01:47:57;17.10;99.90
21115;DHT22;10715;48.546;9.896;2023-06-19T01:50:23;17.10;99.90
21115;DHT22;10715;48.546;9.896;2023-06-19T01:52:50;17.10;99.90
21115;DHT22;10715;48.546;9.896;2023-06-19T01:55:15;17.10;99.90
21115;DHT22;10715;48.546;9.896;2023-06-19T01:57:41;17.10;99.90
21115;DHT22;10715;48.546;9.896;2023-06-19T02:00:07;17.00;99.90
21115;DHT22;10715;48.546;9.896;2023-06-19T02:02:34;17.00;99.90
21115;DHT22;10715;48.546;9.896;2023-06-19T02:04:59;17.00;99.90
21115;DHT22;10715;48.546;9.896;2023-06-19T02:07:25;17.00;99.90
21115;DHT22;10715;48.546;9.896;2023-06-19T02:09:51;17.00;99.90
21115;DHT22;10715;48.546;9.896;2023-06-19T02:12:16;17.00;99.90
21115;DHT22;10715;48.546;9.896;2023-06-19T02:14:42;17.00;99.90
21115;DHT22;10715;48.546;9.896;2023-06-19T02:17:08;17.00;99.90
21115;DHT22;10715;48.546;9.896;2023-06-19T02:19:33;17.00;99.90
21115;DHT22;10715;48.546;9.896;2023-06-19T02:21:59;17.00;99.90
21115;DHT22;10715;48.546;9.896;2023-06-19T02:24:25;17.00;99.90
21115;DHT22;10715;48.546;9.896;2023-06-19T02:26:50;17.00;99.90
21115;DHT22;10715;48.546;9.896;2023-06-19T02:29:16;17.00;99.90
21115;DHT22;10715;48.546;9.896;2023-06-19T02:31:42;16.90;99.90
21115;DHT22;10715;48.546;9.896;2023-06-19T02:34:08;16.90;99.90
21115;DHT22;10715;48.546;9.896;2023-06-19T02:36:36;16.90;99.90
21115;DHT22;10715;48.546;9.896;2023-06-19T02:39:05;16.90;99.90
21115;DHT22;10715;48.546;9.896;2023-06-19T02:41:32;16.90;99.90
21115;DHT22;10715;48.546;9.896;2023-06-19T02:43:57;16.90;99.90
21115;DHT22;10715;48.546;9.896;2023-06-19T02:46:23;16.80;99.90
21115;DHT22;10715;48.546;9.896;2023-06-19T02:48:49;16.70;99.90
21115;DHT22;10715;48.546;9.896;2023-06-19T02:51:14;16.70;99.90
21115;DHT22;10715;48.546;9.896;2023-06-19T02:53:40;16.70;99.90
21115;DHT22;10715;48.546;9.896;2023-06-19T02:56:07;16.60;99.90
21115;DHT22;10715;48.546;9.896;2023-06-19T02:58:33;16.60;99.90
21115;DHT22;10715;48.546;9.896;2023-06-19T03:01:00;16.60;99.90
21115;DHT22;10715;48.546;9.896;2023-06-19T03:03:25;16.60;99.90
21115;DHT22;10715;48.546;9.896;2023-06-19T03:05:51;16.60;99.90
21115;DHT22;10715;48.546;9.896;2023-06-19T03:08:17;16.60;99.90
21115;DHT22;10715;48.546;9.896;2023-06-19T03:10:43;16.50;99.90
21115;DHT22;10715;48.546;9.896;2023-06-19T03:13:08;16.50;99.90
21115;DHT22;10715;48.546;9.896;2023-06-19T03:15:34;16.50;99.90
21115;DHT22;10715;48.546;9.896;2023-06-19T03:18:00;16.50;99.90
21115;DHT22;10715;48.546;9.896;2023-06-19T03:20:28;16.50;99.90
21115;DHT22;10715;48.546;9.896;2023-06-19T03:22:54;16.50;99.90
21115;DHT22;10715;48.546;9.896;2023-06-19T03:25:20;16.40;99.90
21115;DHT22;10715;48.546;9.896;2023-06-19T03:27:45;16.40;99.90
21115;DHT22;10715;48.546;9.896;2023-06-19T03:30:11;16.40;99.90
21115;DHT22;10715;48.546;9.896;2023-06-19T03:32:38;16.40;99.90
21115;DHT22;10715;48.546;9.896;2023-06-19T03:35:04;16.40;99.90
21115;DHT22;10715;48.546;9.896;2023-06-19T03:37:30;16.40;99.90
21115;DHT22;10715;48.546;9.896;2023-06-19T03:39:58;16.40;99.90
21115;DHT22;10715;48.546;9.896;2023-06-19T03:42:23;16.40;99.90
21115;DHT22;10715;48.546;9.896;2023-06-19T03:44:49;16.40;99.90
21115;DHT22;10715;48.546;9.896;2023-06-19T03:47:15;16.30;99.90
21115;DHT22;10715;48.546;9.896;2023-06-19T03:49:41;16.30;99.90
21115;DHT22;10715;48.546;9.896;2023-06-19T03:52:08;16.30;99.90
21115;DHT22;10715;48.546;9.896;2023-06-19T03:54:33;16.30;99.90
21115;DHT22;10715;48.546;9.896;2023-06-19T03:56:59;16.30;99.90
21115;DHT22;10715;48.546;9.896;2023-06-19T03:59:25;16.30;99.90
21115;DHT22;10715;48.546;9.896;2023-06-19T04:01:51;16.30;99.90
21115;DHT22;10715;48.546;9.896;2023-06-19T04:04:16;16.30;99.90
21115;DHT22;10715;48.546;9.896;2023-06-19T04:06:42;16.30;99.90
21115;DHT22;10715;48.546;9.896;2023-06-19T04:09:08;16.30;99.90
21115;DHT22;10715;48.546;9.896;2023-06-19T04:11:33;16.30;99.90
21115;DHT22;10715;48.546;9.896;2023-06-19T04:13:59;16.30;99.90
21115;DHT22;10715;48.546;9.896;2023-06-19T04:16:25;16.30;99.90
21115;DHT22;10715;48.546;9.896;2023-06-19T04:18:50;16.30;99.90
21115;DHT22;10715;48.546;9.896;2023-06-19T04:21:16;16.40;99.90
21115;DHT22;10715;48.546;9.896;2023-06-19T04:23:42;16.40;99.90
21115;DHT22;10715;48.546;9.896;2023-06-19T04:26:07;16.40;99.90
21115;DHT22;10715;48.546;9.896;2023-06-19T04:28:33;16.40;99.90
21115;DHT22;10715;48.546;9.896;2023-06-19T04:30:59;16.50;99.90
21115;DHT22;10715;48.546;9.896;2023-06-19T04:33:28;16.50;99.90
21115;DHT22;10715;48.546;9.896;2023-06-19T04:35:57;16.50;99.90
21115;DHT22;10715;48.546;9.896;2023-06-19T04:38:23;16.60;99.90
21115;DHT22;10715;48.546;9.896;2023-06-19T04:40:52;16.60;99.90
21115;DHT22;10715;48.546;9.896;2023-06-19T04:43:18;16.60;99.90
21115;DHT22;10715;48.546;9.896;2023-06-19T04:45:44;16.70;99.90
21115;DHT22;10715;48.546;9.896;2023-06-19T04:48:10;16.70;99.90
21115;DHT22;10715;48.546;9.896;2023-06-19T04:50:37;16.70;99.90
21115;DHT22;10715;48.546;9.896;2023-06-19T04:53:02;16.80;99.90
21115;DHT22;10715;48.546;9.896;2023-06-19T04:55:28;16.80;99.90
21115;DHT22;10715;48.546;9.896;2023-06-19T04:57:54;16.90;99.90
21115;DHT22;10715;48.546;9.896;2023-06-19T05:00:21;16.90;99.90
21115;DHT22;10715;48.546;9.896;2023-06-19T05:02:49;17.00;99.90
21115;DHT22;10715;48.546;9.896;2023-06-19T05:05:15;17.00;99.90
21115;DHT22;10715;48.546;9.896;2023-06-19T05:07:41;17.10;99.90
21115;DHT22;10715;48.546;9.896;2023-06-19T05:10:08;17.10;99.90
21115;DHT22;10715;48.546;9.896;2023-06-19T05:12:34;17.10;99.90
21115;DHT22;10715;48.546;9.896;2023-06-19T05:15:01;17.20;99.90
21115;DHT22;10715;48.546;9.896;2023-06-19T05:17:26;17.20;99.90
21115;DHT22;10715;48.546;9.896;2023-06-19T05:19:52;17.30;99.90
21115;DHT22;10715;48.546;9.896;2023-06-19T05:22:18;17.30;99.90
21115;DHT22;10715;48.546;9.896;2023-06-19T05:24:49;17.40;99.90
21115;DHT22;10715;48.546;9.896;2023-06-19T05:27:15;17.40;99.90
21115;DHT22;10715;48.546;9.896;2023-06-19T05:29:41;17.40;99.90
21115;DHT22;10715;48.546;9.896;2023-06-19T05:32:08;17.50;99.90
21115;DHT22;10715;48.546;9.896;2023-06-19T05:34:33;17.50;99.90
21115;DHT22;10715;48.546;9.896;2023-06-19T05:36:59;17.60;99.90
21115;DHT22;10715;48.546;9.896;2023-06-19T05:39:26;17.60;99.90
21115;DHT22;10715;48.546;9.896;2023-06-19T05:41:52;17.60;99.90
21115;DHT22;10715;48.546;9.896;2023-06-19T05:44:17;17.60;99.90
21115;DHT22;10715;48.546;9.896;2023-06-19T05:46:44;17.70;99.90
21115;DHT22;10715;48.546;9.896;2023-06-19T05:49:10;17.70;99.90
21115;DHT22;10715;48.546;9.896;2023-06-19T05:51:36;17.70;99.90
21115;DHT22;10715;48.546;9.896;2023-06-19T05:54:01;17.80;99.90
21115;DHT22;10715;48.546;9.896;2023-06-19T05:56:32;17.80;99.90
21115;DHT22;10715;48.546;9.896;2023-06-19T05:58:59;17.90;99.90
21115;DHT22;10715;48.546;9.896;2023-06-19T06:01:25;17.90;99.90
21115;DHT22;10715;48.546;9.896;2023-06-19T06:03:54;17.90;99.90
21115;DHT22;10715;48.546;9.896;2023-06-19T06:06:20;18.00;99.90
21115;DHT22;10715;48.546;9.896;2023-06-19T06:08:45;18.00;99.90
21115;DHT22;10715;48.546;9.896;2023-06-19T06:11:11;18.10;99.90
21115;DHT22;10715;48.546;9.896;2023-06-19T06:13:37;18.10;99.90
21115;DHT22;10715;48.546;9.896;2023-06-19T06:16:03;18.20;99.90
21115;DHT22;10715;48.546;9.896;2023-06-19T06:18:28;18.20;99.90
21115;DHT22;10715;48.546;9.896;2023-06-19T06:20:54;18.30;99.90
21115;DHT22;10715;48.546;9.896;2023-06-19T06:23:20;18.40;99.90
21115;DHT22;10715;48.546;9.896;2023-06-19T06:25:45;18.40;99.90
21115;DHT22;10715;48.546;9.896;2023-06-19T06:28:11;18.50;99.90
21115;DHT22;10715;48.546;9.896;2023-06-19T06:30:38;18.60;99.90
21115;DHT22;10715;48.546;9.896;2023-06-19T06:33:04;18.60;99.90
21115;DHT22;10715;48.546;9.896;2023-06-19T06:35:30;18.60;99.90
21115;DHT22;10715;48.546;9.896;2023-06-19T06:37:55;18.60;99.90
21115;DHT22;10715;48.546;9.896;2023-06-19T06:40:22;18.70;99.90
21115;DHT22;10715;48.546;9.896;2023-06-19T06:42:47;18.80;99.90
21115;DHT22;10715;48.546;9.896;2023-06-19T06:45:14;18.80;99.90
21115;DHT22;10715;48.546;9.896;2023-06-19T06:47:40;18.90;99.90
21115;DHT22;10715;48.546;9.896;2023-06-19T06:50:07;18.90;99.90
21115;DHT22;10715;48.546;9.896;2023-06-19T06:52:33;19.00;99.90
21115;DHT22;10715;48.546;9.896;2023-06-19T06:54:58;19.10;99.90
21115;DHT22;10715;48.546;9.896;2023-06-19T06:57:25;19.20;99.90
21115;DHT22;10715;48.546;9.896;2023-06-19T06:59:50;19.20;99.90
21115;DHT22;10715;48.546;9.896;2023-06-19T07:02:16;19.30;99.90
21115;DHT22;10715;48.546;9.896;2023-06-19T07:04:42;19.30;99.90
21115;DHT22;10715;48.546;9.896;2023-06-19T07:07:07;19.40;99.90
21115;DHT22;10715;48.546;9.896;2023-06-19T07:09:34;19.50;99.90
21115;DHT22;10715;48.546;9.896;2023-06-19T07:12:00;19.60;99.90
21115;DHT22;10715;48.546;9.896;2023-06-19T07:14:29;19.70;99.90
21115;DHT22;10715;48.546;9.896;2023-06-19T07:16:55;19.80;99.90
21115;DHT22;10715;48.546;9.896;2023-06-19T07:19:21;19.90;99.90
21115;DHT22;10715;48.546;9.896;2023-06-19T07:21:47;20.00;99.90
21115;DHT22;10715;48.546;9.896;2023-06-19T07:24:13;20.10;99.90
21115;DHT22;10715;48.546;9.896;2023-06-19T07:26:38;20.20;99.90
21115;DHT22;10715;48.546;9.896;2023-06-19T07:29:04;20.30;99.90
21115;DHT22;10715;48.546;9.896;2023-06-19T07:31:30;20.50;99.90
21115;DHT22;10715;48.546;9.896;2023-06-19T07:33:55;20.70;99.90
21115;DHT22;10715;48.546;9.896;2023-06-19T07:36:21;20.90;99.90
21115;DHT22;10715;48.546;9.896;2023-06-19T07:38:47;21.10;99.90
21115;DHT22;10715;48.546;9.896;2023-06-19T07:41:12;21.20;99.90
21115;DHT22;10715;48.546;9.896;2023-06-19T07:43:38;21.30;99.90
21115;DHT22;10715;48.546;9.896;2023-06-19T07:46:04;21.40;99.90
21115;DHT22;10715;48.546;9.896;2023-06-19T07:48:30;21.50;99.90
21115;DHT22;10715;48.546;9.896;2023-06-19T07:50:56;21.50;99.90
21115;DHT22;10715;48.546;9.896;2023-06-19T07:53:22;21.50;99.90
21115;DHT22;10715;48.546;9.896;2023-06-19T07:55:47;21.50;99.90
21115;DHT22;10715;48.546;9.896;2023-06-19T07:58:13;21.50;99.90
21115;DHT22;10715;48.546;9.896;2023-06-19T08:00:39;21.50;99.90
21115;DHT22;10715;48.546;9.896;2023-06-19T08:03:05;21.60;99.90
21115;DHT22;10715;48.546;9.896;2023-06-19T08:05:31;21.60;99.90
21115;DHT22;10715;48.546;9.896;2023-06-19T08:07:58;21.70;99.90
21115;DHT22;10715;48.546;9.896;2023-06-19T08:10:23;21.80;99.90
21115;DHT22;10715;48.546;9.896;2023-06-19T08:12:49;22.00;99.90
21115;DHT22;10715;48.546;9.896;2023-06-19T08:15:15;22.10;99.90
21115;DHT22;10715;48.546;9.896;2023-06-19T08:17:41;22.20;99.90
21115;DHT22;10715;48.546;9.896;2023-06-19T08:20:08;22.40;99.90
21115;DHT22;10715;48.546;9.896;2023-06-19T08:22:35;22.60;99.90
21115;DHT22;10715;48.546;9.896;2023-06-19T08:25:01;22.70;99.90
21115;DHT22;10715;48.546;9.896;2023-06-19T08:27:27;22.80;99.90
21115;DHT22;10715;48.546;9.896;2023-06-19T08:29:53;22.90;99.90
21115;DHT22;10715;48.546;9.896;2023-06-19T08:32:19;23.00;99.90
21115;DHT22;10715;48.546;9.896;2023-06-19T08:34:44;23.10;99.90
21115;DHT22;10715;48.546;9.896;2023-06-19T08:37:10;23.30;99.90
21115;DHT22;10715;48.546;9.896;2023-06-19T08:39:36;23.40;99.90
21115;DHT22;10715;48.546;9.896;2023-06-19T08:42:06;23.60;99.90
21115;DHT22;10715;48.546;9.896;2023-06-19T08:44:33;23.70;99.90
21115;DHT22;10715;48.546;9.896;2023-06-19T08:47:00;23.80;99.90
21115;DHT22;10715;48.546;9.896;2023-06-19T08:49:29;23.70;99.90
21115;DHT22;10715;48.546;9.896;2023-06-19T08:51:55;23.80;99.90
21115;DHT22;10715;48.546;9.896;2023-06-19T08:54:21;23.80;99.90
21115;DHT22;10715;48.546;9.896;2023-06-19T08:56:47;23.70;99.90
21115;DHT22;10715;48.546;9.896;2023-06-19T08:59:14;23.70;99.90
21115;DHT22;10715;48.546;9.896;2023-06-19T09:01:47;23.80;99.90
21115;DHT22;10715;48.546;9.896;2023-06-19T09:04:22;23.80;99.90
21115;DHT22;10715;48.546;9.896;2023-06-19T09:06:53;23.80;99.90
21115;DHT22;10715;48.546;9.896;2023-06-19T09:09:21;23.80;99.90
21115;DHT22;10715;48.546;9.896;2023-06-19T09:12:08;23.90;99.90
21115;DHT22;10715;48.546;9.896;2023-06-19T09:14:45;23.90;99.90
21115;DHT22;10715;48.546;9.896;2023-06-19T09:17:19;23.90;99.90
21115;DHT22;10715;48.546;9.896;2023-06-19T09:19:53;23.90;99.90
21115;DHT22;10715;48.546;9.896;2023-06-19T09:22:22;24.10;99.90
21115;DHT22;10715;48.546;9.896;2023-06-19T09:24:48;24.10;99.90
21115;DHT22;10715;48.546;9.896;2023-06-19T09:27:15;24.20;99.90
21115;DHT22;10715;48.546;9.896;2023-06-19T09:29:48;24.30;99.90
21115;DHT22;10715;48.546;9.896;2023-06-19T09:32:25;24.40;99.90
21115;DHT22;10715;48.546;9.896;2023-06-19T09:34:53;24.40;99.30
21115;DHT22;10715;48.546;9.896;2023-06-19T09:37:23;24.50;99.20
21115;DHT22;10715;48.546;9.896;2023-06-19T09:42:29;24.60;97.50
21115;DHT22;10715;48.546;9.896;2023-06-19T09:44:59;24.70;98.30
21115;DHT22;10715;48.546;9.896;2023-06-19T09:47:32;24.70;98.40
21115;DHT22;10715;48.546;9.896;2023-06-19T09:50:02;24.90;98.90
21115;DHT22;10715;48.546;9.896;2023-06-19T09:52:28;24.90;97.50
21115;DHT22;10715;48.546;9.896;2023-06-19T09:54:55;25.00;96.60
21115;DHT22;10715;48.546;9.896;2023-06-19T09:57:21;25.10;96.60
21115;DHT22;10715;48.546;9.896;2023-06-19T09:59:54;25.10;96.90
21115;DHT22;10715;48.546;9.896;2023-06-19T10:02:22;25.20;97.40
21115;DHT22;10715;48.546;9.896;2023-06-19T10:04:53;25.40;96.20
21115;DHT22;10715;48.546;9.896;2023-06-19T10:07:26;25.50;94.70
21115;DHT22;10715;48.546;9.896;2023-06-19T10:10:07;25.60;95.30
21115;DHT22;10715;48.546;9.896;2023-06-19T10:12:44;25.70;95.50
21115;DHT22;10715;48.546;9.896;2023-06-19T10:15:21;25.80;94.40
21115;DHT22;10715;48.546;9.896;2023-06-19T10:18:04;26.00;95.20
21115;DHT22;10715;48.546;9.896;2023-06-19T10:20:37;26.10;94.40
21115;DHT22;10715;48.546;9.896;2023-06-19T10:23:11;26.20;94.80
21115;DHT22;10715;48.546;9.896;2023-06-19T10:25:38;26.30;95.10
21115;DHT22;10715;48.546;9.896;2023-06-19T10:28:20;26.40;93.60
21115;DHT22;10715;48.546;9.896;2023-06-19T10:31:05;26.40;94.90
21115;DHT22;10715;48.546;9.896;2023-06-19T10:33:36;26.40;93.80
21115;DHT22;10715;48.546;9.896;2023-06-19T10:36:19;26.30;94.90
21115;DHT22;10715;48.546;9.896;2023-06-19T10:38:45;26.30;95.60
21115;DHT22;10715;48.546;9.896;2023-06-19T10:41:23;26.30;96.00
21115;DHT22;10715;48.546;9.896;2023-06-19T10:44:03;26.30;95.60
21115;DHT22;10715;48.546;9.896;2023-06-19T10:46:36;26.30;96.10
21115;DHT22;10715;48.546;9.896;2023-06-19T10:49:03;26.20;95.80
21115;DHT22;10715;48.546;9.896;2023-06-19T10:51:40;26.20;95.40
21115;DHT22;10715;48.546;9.896;2023-06-19T10:54:07;26.20;95.80
21115;DHT22;10715;48.546;9.896;2023-06-19T10:56:33;26.10;96.70
21115;DHT22;10715;48.546;9.896;2023-06-19T10:59:09;26.10;97.20
21115;DHT22;10715;48.546;9.896;2023-06-19T11:01:40;26.00;96.80
21115;DHT22;10715;48.546;9.896;2023-06-19T11:04:08;26.00;97.00
21115;DHT22;10715;48.546;9.896;2023-06-19T11:06:35;26.00;96.40
21115;DHT22;10715;48.546;9.896;2023-06-19T11:09:01;26.00;96.50
21115;DHT22;10715;48.546;9.896;2023-06-19T11:11:55;26.00;95.90
21115;DHT22;10715;48.546;9.896;2023-06-19T11:14:21;26.00;95.90
21115;DHT22;10715;48.546;9.896;2023-06-19T11:16:47;26.00;95.10
21115;DHT22;10715;48.546;9.896;2023-06-19T11:19:19;25.90;95.10
21115;DHT22;10715;48.546;9.896;2023-06-19T11:21:50;25.90;94.80
21115;DHT22;10715;48.546;9.896;2023-06-19T11:24:16;25.90;95.70
21115;DHT22;10715;48.546;9.896;2023-06-19T11:26:44;26.00;94.90
21115;DHT22;10715;48.546;9.896;2023-06-19T11:29:23;26.00;95.20
21115;DHT22;10715;48.546;9.896;2023-06-19T11:31:51;26.10;94.80
21115;DHT22;10715;48.546;9.896;2023-06-19T11:34:19;26.10;94.20
21115;DHT22;10715;48.546;9.896;2023-06-19T11:36:45;26.20;94.00
21115;DHT22;10715;48.546;9.896;2023-06-19T11:39:15;26.20;94.40
21115;DHT22;10715;48.546;9.896;2023-06-19T11:41:43;26.20;93.90
21115;DHT22;10715;48.546;9.896;2023-06-19T11:44:09;26.30;94.20
21115;DHT22;10715;48.546;9.896;2023-06-19T11:46:35;26.30;93.50
21115;DHT22;10715;48.546;9.896;2023-06-19T11:51:33;26.20;94.40
21115;DHT22;10715;48.546;9.896;2023-06-19T11:53:59;26.20;94.20
21115;DHT22;10715;48.546;9.896;2023-06-19T11:56:25;26.20;93.60
21115;DHT22;10715;48.546;9.896;2023-06-19T11:58:50;26.20;93.40
21115;DHT22;10715;48.546;9.896;2023-06-19T12:01:16;26.30;93.80
21115;DHT22;10715;48.546;9.896;2023-06-19T12:03:42;26.30;93.30
21115;DHT22;10715;48.546;9.896;2023-06-19T12:06:08;26.40;92.70
21115;DHT22;10715;48.546;9.896;2023-06-19T12:08:34;26.40;92.50
21115;DHT22;10715;48.546;9.896;2023-06-19T12:11:02;26.50;92.70
21115;DHT22;10715;48.546;9.896;2023-06-19T12:13:28;26.50;93.40
21115;DHT22;10715;48.546;9.896;2023-06-19T12:15:54;26.50;92.60
21115;DHT22;10715;48.546;9.896;2023-06-19T12:18:20;26.60;92.40
21115;DHT22;10715;48.546;9.896;2023-06-19T12:20:45;26.60;91.60
21115;DHT22;10715;48.546;9.896;2023-06-19T12:23:11;26.70;91.30
21115;DHT22;10715;48.546;9.896;2023-06-19T12:25:36;26.70;91.70
21115;DHT22;10715;48.546;9.896;2023-06-19T12:28:02;26.70;91.60
21115;DHT22;10715;48.546;9.896;2023-06-19T12:30:34;26.70;92.30
21115;DHT22;10715;48.546;9.896;2023-06-19T12:33:00;26.70;91.80
21115;DHT22;10715;48.546;9.896;2023-06-19T12:35:26;26.70;91.60
21115;DHT22;10715;48.546;9.896;2023-06-19T12:37:52;26.80;91.90
21115;DHT22;10715;48.546;9.896;2023-06-19T12:40:18;26.80;91.70
21115;DHT22;10715;48.546;9.896;2023-06-19T12:42:44;26.80;91.00
21115;DHT22;10715;48.546;9.896;2023-06-19T12:45:10;26.90;91.00
21115;DHT22;10715;48.546;9.896;2023-06-19T12:47:36;26.80;90.80
21115;DHT22;10715;48.546;9.896;2023-06-19T12:50:02;26.90;91.10
21115;DHT22;10715;48.546;9.896;2023-06-19T12:52:28;27.00;90.60
21115;DHT22;10715;48.546;9.896;2023-06-19T12:54:54;27.00;90.30
21115;DHT22;10715;48.546;9.896;2023-06-19T12:57:19;27.00;90.40
21115;DHT22;10715;48.546;9.896;2023-06-19T12:59:45;27.00;91.00
21115;DHT22;10715;48.546;9.896;2023-06-19T13:02:11;27.00;91.40
21115;DHT22;10715;48.546;9.896;2023-06-19T13:04:36;27.00;91.20
21115;DHT22;10715;48.546;9.896;2023-06-19T13:07:03;27.00;91.20
21115;DHT22;10715;48.546;9.896;2023-06-19T13:09:29;27.00;91.30
21115;DHT22;10715;48.546;9.896;2023-06-19T13:11:55;27.00;91.40
21115;DHT22;10715;48.546;9.896;2023-06-19T13:14:21;27.00;90.70
21115;DHT22;10715;48.546;9.896;2023-06-19T13:16:47;27.00;90.50
21115;DHT22;10715;48.546;9.896;2023-06-19T13:19:14;26.90;90.70
21115;DHT22;10715;48.546;9.896;2023-06-19T13:21:40;26.90;91.60
21115;DHT22;10715;48.546;9.896;2023-06-19T13:24:06;26.90;90.50
21115;DHT22;10715;48.546;9.896;2023-06-19T13:26:32;26.80;90.40
21115;DHT22;10715;48.546;9.896;2023-06-19T13:28:57;26.70;90.60
21115;DHT22;10715;48.546;9.896;2023-06-19T13:31:24;26.70;90.70
21115;DHT22;10715;48.546;9.896;2023-06-19T13:33:50;26.70;91.00
21115;DHT22;10715;48.546;9.896;2023-06-19T13:36:16;26.70;91.30
21115;DHT22;10715;48.546;9.896;2023-06-19T13:38:44;26.70;91.10
21115;DHT22;10715;48.546;9.896;2023-06-19T13:41:10;26.80;91.20
21115;DHT22;10715;48.546;9.896;2023-06-19T13:43:36;26.80;91.30
21115;DHT22;10715;48.546;9.896;2023-06-19T13:46:04;26.90;90.20
21115;DHT22;10715;48.546;9.896;2023-06-19T13:48:31;26.90;91.00
21115;DHT22;10715;48.546;9.896;2023-06-19T13:50:57;26.90;90.80
21115;DHT22;10715;48.546;9.896;2023-06-19T13:53:25;26.90;90.70
21115;DHT22;10715;48.546;9.896;2023-06-19T13:55:50;27.00;90.70
21115;DHT22;10715;48.546;9.896;2023-06-19T13:58:16;27.00;90.40
21115;DHT22;10715;48.546;9.896;2023-06-19T14:00:42;27.10;90.40
21115;DHT22;10715;48.546;9.896;2023-06-19T14:03:08;27.10;90.30
21115;DHT22;10715;48.546;9.896;2023-06-19T14:05:33;27.10;90.20
21115;DHT22;10715;48.546;9.896;2023-06-19T14:07:59;27.10;90.40
21115;DHT22;10715;48.546;9.896;2023-06-19T14:10:25;27.10;90.50
21115;DHT22;10715;48.546;9.896;2023-06-19T14:12:51;27.20;90.60
21115;DHT22;10715;48.546;9.896;2023-06-19T14:15:17;27.20;90.20
21115;DHT22;10715;48.546;9.896;2023-06-19T14:17:42;27.20;89.40
21115;DHT22;10715;48.546;9.896;2023-06-19T14:20:11;27.20;89.70
21115;DHT22;10715;48.546;9.896;2023-06-19T14:22:36;27.30;90.00
21115;DHT22;10715;48.546;9.896;2023-06-19T14:25:02;27.30;90.20
21115;DHT22;10715;48.546;9.896;2023-06-19T14:27:28;27.30;90.50
21115;DHT22;10715;48.546;9.896;2023-06-19T14:29:55;27.40;90.50
21115;DHT22;10715;48.546;9.896;2023-06-19T14:32:22;27.50;90.30
21115;DHT22;10715;48.546;9.896;2023-06-19T14:34:48;27.50;90.50
21115;DHT22;10715;48.546;9.896;2023-06-19T14:37:14;27.50;89.70
21115;DHT22;10715;48.546;9.896;2023-06-19T14:39:40;27.60;90.00
21115;DHT22;10715;48.546;9.896;2023-06-19T14:42:06;27.60;88.90
21115;DHT22;10715;48.546;9.896;2023-06-19T14:44:32;27.70;90.10
21115;DHT22;10715;48.546;9.896;2023-06-19T14:47:00;27.70;89.90
21115;DHT22;10715;48.546;9.896;2023-06-19T14:49:27;27.80;89.20
21115;DHT22;10715;48.546;9.896;2023-06-19T14:51:53;27.80;88.00
21115;DHT22;10715;48.546;9.896;2023-06-19T14:54:19;27.80;88.30
21115;DHT22;10715;48.546;9.896;2023-06-19T14:56:45;27.80;87.70
21115;DHT22;10715;48.546;9.896;2023-06-19T14:59:14;27.80;88.40
21115;DHT22;10715;48.546;9.896;2023-06-19T15:01:40;27.80;87.80
21115;DHT22;10715;48.546;9.896;2023-06-19T15:04:06;27.90;87.60
21115;DHT22;10715;48.546;9.896;2023-06-19T15:06:32;27.90;87.00
21115;DHT22;10715;48.546;9.896;2023-06-19T15:08:58;27.90;87.80
21115;DHT22;10715;48.546;9.896;2023-06-19T15:11:24;27.90;88.00
21115;DHT22;10715;48.546;9.896;2023-06-19T15:13:49;28.00;87.90
21115;DHT22;10715;48.546;9.896;2023-06-19T15:16:15;28.00;87.70
21115;DHT22;10715;48.546;9.896;2023-06-19T15:18:42;28.10;87.80
21115;DHT22;10715;48.546;9.896;2023-06-19T15:21:08;28.10;87.60
21115;DHT22;10715;48.546;9.896;2023-06-19T15:23:34;28.20;86.80
21115;DHT22;10715;48.546;9.896;2023-06-19T15:26:00;28.20;87.20
21115;DHT22;10715;48.546;9.896;2023-06-19T15:28:26;28.20;86.70
21115;DHT22;10715;48.546;9.896;2023-06-19T15:30:52;28.10;86.60
21115;DHT22;10715;48.546;9.896;2023-06-19T15:33:17;28.10;86.50
21115;DHT22;10715;48.546;9.896;2023-06-19T15:35:43;28.10;87.10
21115;DHT22;10715;48.546;9.896;2023-06-19T15:38:09;28.10;86.80
21115;DHT22;10715;48.546;9.896;2023-06-19T15:40:35;28.00;87.00
21115;DHT22;10715;48.546;9.896;2023-06-19T15:43:01;28.00;87.20